Time,TemperatureF,DewpointF,PressureIn,WindDirection,WindDirectionDegrees,WindSpeedMPH,WindSpeedGustMPH,Humidity,HourlyPrecipIn,Conditions,Clouds,dailyrainin,SolarRadiationWatts/m^2,SoftwareType,DateUTC
2013-07-17 00:00:00,60.4,53.9,30.06,SSE,167,1.0,1.0,79,0.00,,,0.00,0,Wunderground v.1.15,2013-07-17 07:00:00,
2013-07-17 00:10:00,60.3,53.8,30.06,SSE,167,1.0,1.0,79,0.00,,,0.00,0,Wunderground v.1.15,2013-07-17 07:10:00,
2013-07-17 00:20:00,60.3,53.8,30.06,SSE,158,0.0,0.0,79,0.00,,,0.00,0,Wunderground v.1.15,2013-07-17 07:20:00,
2013-07-17 00:30:00,60.3,53.8,30.06,South,190,0.0,0.0,79,0.00,,,0.00,0,Wunderground v.1.15,2013-07-17 07:30:00,
2013-07-17 00:40:00,60.1,53.6,30.06,NE,51,0.0,0.0,79,0.00,,,0.00,0,Wunderground v.1.15,2013-07-17 07:40:00,
2013-07-17 00:50:00,60.0,53.5,30.06,East,101,0.0,0.0,79,0.00,,,0.00,0,Wunderground v.1.15,2013-07-17 07:50:00,
2013-07-17 01:00:00,59.9,53.4,30.05,South,173,1.0,2.0,79,0.00,,,0.00,0,Wunderground v.1.15,2013-07-17 08:00:00,
2013-07-17 01:10:00,59.6,53.1,30.06,ESE,113,1.0,1.0,79,0.00,,,0.00,0,Wunderground v.1.15,2013-07-17 08:10:00,
2013-07-17 01:20:00,59.5,53.0,30.06,WSW,246,0.0,0.0,79,0.00,,,0.00,0,Wunderground v.1.15,2013-07-17 08:20:00,
2013-07-17 01:30:00,59.5,53.0,30.05,NNW,335,0.0,0.0,79,0.00,,,0.00,0,Wunderground v.1.15,2013-07-17 08:30:00,
2013-07-17 01:40:00,59.1,52.6,30.06,NNW,335,0.0,0.0,79,0.00,,,0.00,0,Wunderground v.1.15,2013-07-17 08:40:00,
2013-07-17 01:50:00,59.0,52.5,30.06,NNW,335,0.0,0.0,79,0.00,,,0.00,0,Wunderground v.1.15,2013-07-17 08:50:00,
2013-07-17 02:00:00,58.8,52.6,30.06,WNW,283,0.0,0.0,80,0.00,,,0.00,0,Wunderground v.1.15,2013-07-17 09:00:00,
2013-07-17 02:10:00,58.6,52.4,30.06,ESE,103,0.0,3.0,80,0.00,,,0.00,0,Wunderground v.1.15,2013-07-17 09:10:00,
2013-07-17 02:20:00,58.5,52.7,30.06,NW,311,0.0,0.0,81,0.00,,,0.00,0,Wunderground v.1.15,2013-07-17 09:20:00,
2013-07-17 02:30:00,58.5,53.0,30.06,NNE,15,0.0,0.0,82,0.00,,,0.00,0,Wunderground v.1.15,2013-07-17 09:30:00,
2013-07-17 02:40:00,58.5,53.0,30.06,NNE,27,0.0,0.0,82,0.00,,,0.00,0,Wunderground v.1.15,2013-07-17 09:40:00,
2013-07-17 02:50:00,58.6,53.1,30.06,ESE,122,0.0,0.0,82,0.00,,,0.00,0,Wunderground v.1.15,2013-07-17 09:50:00,
2013-07-17 03:00:00,58.7,53.2,30.06,NNE,17,0.0,0.0,82,0.00,,,0.00,0,Wunderground v.1.15,2013-07-17 10:00:00,
2013-07-17 03:10:00,58.6,53.1,30.06,NNE,19,0.0,2.0,82,0.00,,,0.00,0,Wunderground v.1.15,2013-07-17 10:10:00,
2013-07-17 03:20:00,58.5,53.0,30.06,SE,144,0.0,0.0,82,0.00,,,0.00,0,Wunderground v.1.15,2013-07-17 10:20:00,
2013-07-17 03:30:00,58.4,52.9,30.05,NNW,343,1.0,1.0,82,0.00,,,0.00,0,Wunderground v.1.15,2013-07-17 10:30:00,
2013-07-17 03:40:00,58.3,53.2,30.06,NNW,336,0.0,0.0,83,0.00,,,0.00,0,Wunderground v.1.15,2013-07-17 10:40:00,
2013-07-17 03:50:00,58.2,52.7,30.06,NW,325,0.0,0.0,82,0.00,,,0.00,0,Wunderground v.1.15,2013-07-17 10:50:00,
2013-07-17 04:00:00,58.0,52.5,30.06,NW,325,0.0,0.0,82,0.00,,,0.00,0,Wunderground v.1.15,2013-07-17 11:00:00,
2013-07-17 04:10:00,57.8,52.3,30.06,ESE,123,0.0,0.0,82,0.00,,,0.00,0,Wunderground v.1.15,2013-07-17 11:10:00,
2013-07-17 04:20:00,57.4,51.9,30.06,SE,124,0.0,1.0,82,0.00,,,0.00,0,Wunderground v.1.15,2013-07-17 11:20:00,
2013-07-17 04:30:00,57.1,51.7,30.06,SE,124,0.0,0.0,82,0.00,,,0.00,0,Wunderground v.1.15,2013-07-17 11:30:00,
2013-07-17 04:40:00,56.9,51.5,30.06,SE,124,0.0,0.0,82,0.00,,,0.00,0,Wunderground v.1.15,2013-07-17 11:40:00,
2013-07-17 04:50:00,56.8,51.7,30.06,ESE,119,0.0,0.0,83,0.00,,,0.00,0,Wunderground v.1.15,2013-07-17 11:50:00,
2013-07-17 05:00:00,56.6,51.5,30.06,ESE,119,0.0,0.0,83,0.00,,,0.00,0,Wunderground v.1.15,2013-07-17 12:00:00,
2013-07-17 05:10:00,56.5,51.7,30.07,ESE,119,0.0,0.0,84,0.00,,,0.00,0,Wunderground v.1.15,2013-07-17 12:10:00,
2013-07-17 05:20:00,56.6,51.8,30.07,South,169,0.0,0.0,84,0.00,,,0.00,0,Wunderground v.1.15,2013-07-17 12:20:00,
2013-07-17 05:30:00,56.7,51.9,30.07,South,169,0.0,0.0,84,0.00,,,0.00,0,Wunderground v.1.15,2013-07-17 12:30:00,
2013-07-17 05:40:00,56.9,52.4,30.07,South,169,0.0,0.0,85,0.00,,,0.00,0,Wunderground v.1.15,2013-07-17 12:40:00,
2013-07-17 05:50:00,57.1,52.6,30.07,WNW,291,0.0,0.0,85,0.00,,,0.00,0,Wunderground v.1.15,2013-07-17 12:50:00,
2013-07-17 06:00:00,57.4,53.2,30.08,NNE,32,0.0,0.0,86,0.00,,,0.00,0,Wunderground v.1.15,2013-07-17 13:00:00,
2013-07-17 06:10:00,57.5,53.0,30.08,NNE,32,0.0,0.0,85,0.00,,,0.00,5,Wunderground v.1.15,2013-07-17 13:10:00,
2013-07-17 06:20:00,57.6,53.1,30.08,NNE,32,0.0,0.0,85,0.00,,,0.00,11,Wunderground v.1.15,2013-07-17 13:20:00,
2013-07-17 06:30:00,57.7,53.2,30.08,NNE,32,0.0,0.0,85,0.00,,,0.00,16,Wunderground v.1.15,2013-07-17 13:30:00,
2013-07-17 06:40:00,57.8,53.3,30.08,NNE,32,0.0,0.0,85,0.00,,,0.00,18,Wunderground v.1.15,2013-07-17 13:40:00,
2013-07-17 06:50:00,58.2,53.7,30.09,NNE,32,0.0,0.0,85,0.00,,,0.00,28,Wunderground v.1.15,2013-07-17 13:50:00,
2013-07-17 07:00:00,58.5,54.0,30.09,NNE,32,0.0,0.0,85,0.00,,,0.00,33,Wunderground v.1.15,2013-07-17 14:00:00,
2013-07-17 07:10:00,58.9,54.4,30.09,NNE,31,0.0,0.0,85,0.00,,,0.00,35,Wunderground v.1.15,2013-07-17 14:10:00,
2013-07-17 07:20:00,59.0,54.2,30.10,NNW,341,0.0,0.0,84,0.00,,,0.00,35,Wunderground v.1.15,2013-07-17 14:20:00,
2013-07-17 07:30:00,59.3,54.5,30.10,SW,236,0.0,0.0,84,0.00,,,0.00,63,Wunderground v.1.15,2013-07-17 14:30:00,
2013-07-17 07:40:00,59.6,54.4,30.10,West,269,0.0,0.0,83,0.00,,,0.00,76,Wunderground v.1.15,2013-07-17 14:40:00,
2013-07-17 07:50:00,59.9,54.7,30.10,East,84,0.0,0.0,83,0.00,,,0.00,97,Wunderground v.1.15,2013-07-17 14:50:00,
2013-07-17 08:00:00,60.3,54.8,30.11,East,84,0.0,0.0,82,0.00,,,0.00,111,Wunderground v.1.15,2013-07-17 15:00:00,
2013-07-17 08:10:00,60.6,54.7,30.10,NE,54,0.0,0.0,81,0.00,,,0.00,120,Wunderground v.1.15,2013-07-17 15:10:00,
2013-07-17 08:20:00,60.9,55.0,30.11,NW,317,0.0,0.0,81,0.00,,,0.00,120,Wunderground v.1.15,2013-07-17 15:20:00,
2013-07-17 08:30:00,61.2,55.0,30.11,NW,318,0.0,0.0,80,0.00,,,0.00,148,Wunderground v.1.15,2013-07-17 15:30:00,
2013-07-17 08:40:00,61.6,55.4,30.11,NW,319,0.0,0.0,80,0.00,,,0.00,162,Wunderground v.1.15,2013-07-17 15:40:00,
2013-07-17 08:50:00,62.0,55.4,30.11,NW,320,0.0,0.0,79,0.00,,,0.00,163,Wunderground v.1.15,2013-07-17 15:50:00,
2013-07-17 09:00:00,62.2,55.3,30.11,North,5,0.0,0.0,78,0.00,,,0.00,193,Wunderground v.1.15,2013-07-17 16:00:00,
2013-07-17 09:10:00,62.8,55.5,30.12,West,277,0.0,0.0,77,0.00,,,0.00,306,Wunderground v.1.15,2013-07-17 16:10:00,
2013-07-17 09:20:00,64.0,56.3,30.12,North,5,1.0,2.0,76,0.00,,,0.00,357,Wunderground v.1.15,2013-07-17 16:20:00,
2013-07-17 09:30:00,65.0,56.1,30.12,NNE,16,1.0,1.0,73,0.00,,,0.00,680,Wunderground v.1.15,2013-07-17 16:30:00,
2013-07-17 09:40:00,65.7,56.8,30.12,NNE,24,1.0,2.0,73,0.00,,,0.00,698,Wunderground v.1.15,2013-07-17 16:40:00,
2013-07-17 09:50:00,66.5,56.8,30.12,NNW,338,1.0,1.0,71,0.00,,,0.00,694,Wunderground v.1.15,2013-07-17 16:50:00,
2013-07-17 10:00:00,66.4,55.9,30.11,SE,136,1.0,1.0,69,0.00,,,0.00,710,Wunderground v.1.15,2013-07-17 17:00:00,
2013-07-17 10:10:00,67.3,56.0,30.11,West,280,0.0,0.0,67,0.00,,,0.00,735,Wunderground v.1.15,2013-07-17 17:10:00,
2013-07-17 10:20:00,68.1,56.7,30.11,ESE,106,1.0,2.0,67,0.00,,,0.00,766,Wunderground v.1.15,2013-07-17 17:20:00,
2013-07-17 10:30:00,68.8,56.6,30.11,SE,125,1.0,1.0,65,0.00,,,0.00,788,Wunderground v.1.15,2013-07-17 17:30:00,
2013-07-17 10:40:00,70.5,57.7,30.11,NW,323,0.0,0.0,64,0.00,,,0.00,814,Wunderground v.1.15,2013-07-17 17:40:00,
2013-07-17 10:50:00,70.6,56.9,30.11,WNW,286,1.0,1.0,62,0.00,,,0.00,833,Wunderground v.1.15,2013-07-17 17:50:00,
2013-07-17 11:00:00,72.0,56.9,30.11,West,267,1.0,1.0,59,0.00,,,0.00,849,Wunderground v.1.15,2013-07-17 18:00:00,
2013-07-17 11:10:00,72.6,57.0,30.11,West,275,1.0,1.0,58,0.00,,,0.00,870,Wunderground v.1.15,2013-07-17 18:10:00,
2013-07-17 11:20:00,72.0,56.9,30.11,WNW,299,1.0,1.0,59,0.00,,,0.00,891,Wunderground v.1.15,2013-07-17 18:20:00,
2013-07-17 11:30:00,73.9,57.2,30.10,NW,312,2.0,2.0,56,0.00,,,0.00,904,Wunderground v.1.15,2013-07-17 18:30:00,
2013-07-17 11:40:00,75.2,57.4,30.10,NW,316,1.0,1.0,54,0.00,,,0.00,925,Wunderground v.1.15,2013-07-17 18:40:00,
2013-07-17 11:50:00,75.5,57.7,30.10,West,276,1.0,1.0,54,0.00,,,0.00,937,Wunderground v.1.15,2013-07-17 18:50:00,
2013-07-17 12:00:00,75.8,56.9,30.10,West,273,1.0,2.0,52,0.00,,,0.00,947,Wunderground v.1.15,2013-07-17 19:00:00,
2013-07-17 12:10:00,77.7,55.9,30.10,WNW,290,1.0,4.0,47,0.00,,,0.00,965,Wunderground v.1.15,2013-07-17 19:10:00,
2013-07-17 12:20:00,78.1,55.0,30.10,WNW,286,1.0,1.0,45,0.00,,,0.00,972,Wunderground v.1.15,2013-07-17 19:20:00,
2013-07-17 12:30:00,78.7,56.2,30.10,NNW,328,2.0,2.0,46,0.00,,,0.00,977,Wunderground v.1.15,2013-07-17 19:30:00,
2013-07-17 12:40:00,80.5,57.2,30.09,North,355,2.0,3.0,45,0.00,,,0.00,986,Wunderground v.1.15,2013-07-17 19:40:00,
2013-07-17 12:50:00,80.9,56.3,30.09,SSW,198,2.0,2.0,43,0.00,,,0.00,991,Wunderground v.1.15,2013-07-17 19:50:00,
2013-07-17 13:00:00,81.0,56.4,30.09,North,360,2.0,2.0,43,0.00,,,0.00,990,Wunderground v.1.15,2013-07-17 20:00:00,
2013-07-17 13:10:00,81.4,57.4,30.08,NW,325,2.0,2.0,44,0.00,,,0.00,1002,Wunderground v.1.15,2013-07-17 20:10:00,
2013-07-17 13:20:00,82.1,57.4,30.08,West,265,2.0,5.0,43,0.00,,,0.00,997,Wunderground v.1.15,2013-07-17 20:20:00,
2013-07-17 13:30:00,81.4,57.4,30.08,WNW,283,2.0,2.0,44,0.00,,,0.00,991,Wunderground v.1.15,2013-07-17 20:30:00,
2013-07-17 13:40:00,82.4,58.3,30.08,WNW,283,2.0,2.0,44,0.00,,,0.00,988,Wunderground v.1.15,2013-07-17 20:40:00,
2013-07-17 13:50:00,81.8,57.1,30.08,NW,313,1.0,1.0,43,0.00,,,0.00,990,Wunderground v.1.15,2013-07-17 20:50:00,
2013-07-17 14:00:00,82.1,57.4,30.08,WNW,288,2.0,2.0,43,0.00,,,0.00,979,Wunderground v.1.15,2013-07-17 21:00:00,
2013-07-17 14:10:00,83.3,58.5,30.08,WSW,238,1.0,1.0,43,0.00,,,0.00,972,Wunderground v.1.15,2013-07-17 21:10:00,
2013-07-17 14:20:00,83.9,58.3,30.08,SW,229,0.0,0.0,42,0.00,,,0.00,965,Wunderground v.1.15,2013-07-17 21:20:00,
2013-07-17 14:30:00,84.1,58.5,30.07,WNW,288,0.0,1.0,42,0.00,,,0.00,958,Wunderground v.1.15,2013-07-17 21:30:00,
2013-07-17 14:40:00,84.4,58.8,30.07,WSW,253,1.0,1.0,42,0.00,,,0.00,946,Wunderground v.1.15,2013-07-17 21:40:00,
2013-07-17 14:50:00,83.8,57.6,30.06,West,264,0.0,0.0,41,0.00,,,0.00,930,Wunderground v.1.15,2013-07-17 21:50:00,
2013-07-17 15:00:00,83.8,57.6,30.07,WSW,237,0.0,0.0,41,0.00,,,0.00,918,Wunderground v.1.15,2013-07-17 22:00:00,
2013-07-17 15:10:00,83.2,57.7,30.06,WSW,243,1.0,1.0,42,0.00,,,0.00,900,Wunderground v.1.15,2013-07-17 22:10:00,
2013-07-17 15:20:00,84.1,57.9,30.06,WSW,248,1.0,1.0,41,0.00,,,0.00,534,Wunderground v.1.15,2013-07-17 22:20:00,
2013-07-17 15:30:00,83.3,57.1,30.06,West,274,1.0,1.0,41,0.00,,,0.00,867,Wunderground v.1.15,2013-07-17 22:30:00,
2013-07-17 15:40:00,83.0,58.2,30.06,SSE,166,0.0,0.0,43,0.00,,,0.00,849,Wunderground v.1.15,2013-07-17 22:40:00,
2013-07-17 15:50:00,83.3,57.1,30.06,West,260,0.0,0.0,41,0.00,,,0.00,828,Wunderground v.1.15,2013-07-17 22:50:00,
2013-07-17 16:00:00,82.5,57.1,30.05,SW,218,0.0,0.0,42,0.00,,,0.00,807,Wunderground v.1.15,2013-07-17 23:00:00,
2013-07-17 16:10:00,82.9,56.8,30.05,NE,49,0.0,0.0,41,0.00,,,0.00,777,Wunderground v.1.15,2013-07-17 23:10:00,
2013-07-17 16:20:00,82.8,57.4,30.05,SE,144,0.0,0.0,42,0.00,,,0.00,754,Wunderground v.1.15,2013-07-17 23:20:00,
2013-07-17 16:30:00,82.9,56.8,30.05,NNW,348,0.0,0.0,41,0.00,,,0.00,728,Wunderground v.1.15,2013-07-17 23:30:00,
2013-07-17 16:40:00,82.4,57.0,30.05,WSW,238,0.0,1.0,42,0.00,,,0.00,622,Wunderground v.1.15,2013-07-17 23:40:00,
2013-07-17 16:50:00,81.9,55.9,30.05,SW,226,0.0,0.0,41,0.00,,,0.00,666,Wunderground v.1.15,2013-07-17 23:50:00,
2013-07-17 17:00:00,81.6,56.3,30.04,WNW,293,0.0,0.0,42,0.00,,,0.00,647,Wunderground v.1.15,2013-07-18 00:00:00,
2013-07-17 17:10:00,81.1,56.5,30.04,North,5,0.0,0.0,43,0.00,,,0.00,613,Wunderground v.1.15,2013-07-18 00:10:00,
2013-07-17 17:20:00,80.7,56.1,30.04,SSE,153,0.0,1.0,43,0.00,,,0.00,582,Wunderground v.1.15,2013-07-18 00:20:00,
2013-07-17 17:30:00,80.7,55.5,30.03,ESE,102,0.0,0.0,42,0.00,,,0.00,32,Wunderground v.1.15,2013-07-18 00:30:00,
2013-07-17 17:40:00,81.0,55.7,30.03,West,275,0.0,0.0,42,0.00,,,0.00,32,Wunderground v.1.15,2013-07-18 00:40:00,
2013-07-17 17:50:00,80.8,55.6,30.03,SSE,165,1.0,1.0,42,0.00,,,0.00,39,Wunderground v.1.15,2013-07-18 00:50:00,
2013-07-17 18:00:00,80.5,55.3,30.03,WSW,257,0.0,0.0,42,0.00,,,0.00,25,Wunderground v.1.15,2013-07-18 01:00:00,
2013-07-17 18:10:00,80.1,54.9,30.03,West,270,0.0,0.0,42,0.00,,,0.00,25,Wunderground v.1.15,2013-07-18 01:10:00,
2013-07-17 18:20:00,79.4,55.0,30.03,SW,221,0.0,0.0,43,0.00,,,0.00,23,Wunderground v.1.15,2013-07-18 01:20:00,
2013-07-17 18:30:00,78.7,53.0,30.03,ESE,106,0.0,0.0,41,0.00,,,0.00,23,Wunderground v.1.15,2013-07-18 01:30:00,
2013-07-17 18:40:00,78.5,52.8,30.03,ESE,105,0.0,0.0,41,0.00,,,0.00,21,Wunderground v.1.15,2013-07-18 01:40:00,
2013-07-17 18:50:00,78.3,53.3,30.03,North,11,0.0,0.0,42,0.00,,,0.00,21,Wunderground v.1.15,2013-07-18 01:50:00,
2013-07-17 19:00:00,78.0,54.3,30.03,NNE,19,0.0,0.0,44,0.00,,,0.00,19,Wunderground v.1.15,2013-07-18 02:00:00,
2013-07-17 19:10:00,77.8,54.8,30.03,East,84,0.0,0.0,45,0.00,,,0.00,18,Wunderground v.1.15,2013-07-18 02:10:00,
2013-07-17 19:20:00,77.8,55.4,30.04,NW,323,0.0,0.0,46,0.00,,,0.00,18,Wunderground v.1.15,2013-07-18 02:20:00,
2013-07-17 19:30:00,77.6,55.8,30.04,WNW,302,0.0,0.0,47,0.00,,,0.00,16,Wunderground v.1.15,2013-07-18 02:30:00,
2013-07-17 19:40:00,77.3,56.1,30.04,WNW,296,0.0,0.0,48,0.00,,,0.00,14,Wunderground v.1.15,2013-07-18 02:40:00,
2013-07-17 19:50:00,76.7,56.1,30.04,NW,308,0.0,3.0,49,0.00,,,0.00,12,Wunderground v.1.15,2013-07-18 02:50:00,
2013-07-17 20:00:00,75.5,55.6,30.04,WNW,299,1.0,1.0,50,0.00,,,0.00,11,Wunderground v.1.15,2013-07-18 03:00:00,
2013-07-17 20:10:00,74.4,55.1,30.04,West,276,1.0,1.0,51,0.00,,,0.00,9,Wunderground v.1.15,2013-07-18 03:10:00,
2013-07-17 20:20:00,73.2,54.5,30.04,WNW,286,2.0,2.0,52,0.00,,,0.00,5,Wunderground v.1.15,2013-07-18 03:20:00,
2013-07-17 20:30:00,71.8,54.3,30.04,West,267,1.0,1.0,54,0.00,,,0.00,0,Wunderground v.1.15,2013-07-18 03:30:00,
2013-07-17 20:40:00,70.6,53.6,30.04,West,262,0.0,0.0,55,0.00,,,0.00,0,Wunderground v.1.15,2013-07-18 03:40:00,
2013-07-17 20:50:00,69.5,53.1,30.04,West,262,0.0,0.0,56,0.00,,,0.00,0,Wunderground v.1.15,2013-07-18 03:50:00,
2013-07-17 21:00:00,68.7,52.8,30.05,West,262,0.0,0.0,57,0.00,,,0.00,0,Wunderground v.1.15,2013-07-18 04:00:00,
2013-07-17 21:10:00,68.0,52.7,30.05,West,262,0.0,0.0,58,0.00,,,0.00,0,Wunderground v.1.15,2013-07-18 04:10:00,
2013-07-17 21:20:00,67.4,52.6,30.05,West,262,0.0,0.0,59,0.00,,,0.00,0,Wunderground v.1.15,2013-07-18 04:20:00,
2013-07-17 21:30:00,67.0,52.7,30.05,West,260,0.0,0.0,60,0.00,,,0.00,0,Wunderground v.1.15,2013-07-18 04:30:00,
2013-07-17 21:40:00,66.5,52.6,30.06,West,261,0.0,0.0,61,0.00,,,0.00,0,Wunderground v.1.15,2013-07-18 04:40:00,
2013-07-17 21:50:00,65.9,52.5,30.06,West,261,0.0,0.0,62,0.00,,,0.00,0,Wunderground v.1.15,2013-07-18 04:50:00,
2013-07-17 22:00:00,65.2,52.7,30.07,West,261,0.0,1.0,64,0.00,,,0.00,0,Wunderground v.1.15,2013-07-18 05:00:00,
2013-07-17 22:10:00,64.3,52.3,30.07,WSW,258,0.0,0.0,65,0.00,,,0.00,0,Wunderground v.1.15,2013-07-18 05:10:00,
2013-07-17 22:20:00,63.6,52.0,30.07,WSW,257,1.0,1.0,66,0.00,,,0.00,0,Wunderground v.1.15,2013-07-18 05:20:00,
2013-07-17 22:30:00,63.0,51.9,30.07,WSW,250,1.0,1.0,67,0.00,,,0.00,0,Wunderground v.1.15,2013-07-18 05:30:00,
2013-07-17 22:40:00,62.4,51.7,30.07,WSW,250,0.0,0.0,68,0.00,,,0.00,0,Wunderground v.1.15,2013-07-18 05:40:00,
2013-07-17 22:50:00,62.1,51.8,30.07,WSW,250,0.0,0.0,69,0.00,,,0.00,0,Wunderground v.1.15,2013-07-18 05:50:00,
2013-07-17 23:00:00,61.8,51.9,30.07,WSW,250,0.0,0.0,70,0.00,,,0.00,0,Wunderground v.1.15,2013-07-18 06:00:00,
2013-07-17 23:10:00,61.7,51.8,30.07,WSW,250,0.0,0.0,70,0.00,,,0.00,0,Wunderground v.1.15,2013-07-18 06:10:00,
2013-07-17 23:20:00,61.3,51.8,30.07,WSW,250,0.0,0.0,71,0.00,,,0.00,0,Wunderground v.1.15,2013-07-18 06:20:00,
2013-07-17 23:30:00,61.0,51.5,30.07,WSW,250,0.0,0.0,71,0.00,,,0.00,0,Wunderground v.1.15,2013-07-18 06:30:00,
2013-07-17 23:40:00,60.7,51.6,30.07,WSW,250,0.0,0.0,72,0.00,,,0.00,0,Wunderground v.1.15,2013-07-18 06:40:00,
2013-07-17 23:50:00,60.5,51.4,30.08,WSW,250,0.0,0.0,72,0.00,,,0.00,0,Wunderground v.1.15,2013-07-18 06:50:00,